< < Back
Terminal Aerodrome Forecast


Current Version              Previous Versions:   1  2  3  4  5  6  7  8  9  

Terminal Aerodrome Forecast

178
FTUS42 KJAX 241700
TAFSSI
TAF
KSSI 241733Z 2418/2518 04006KT P6SM FEW250=



Latest METAR

813
SAUS70 KWBC 242100 RRA
MTRSSI
METAR KSSI 242053Z AUTO 09007KT 10SM CLR 21/10 A2998 RMK AO2 SLP151
T02110100 56014


USA.gov is the U.S. government's official web portal to all federal, state and local government web resources and services.